Hlavní strana
METAR-TAF:

METAR-TAF

Letiště :

Letiště Ankara-Esenboğa

Ankara Esenboğa, Turecko

zeměpisná šířka: 40-07N, zeměpisná délka: 032-59E, výška: 953 m

Aktuální stav počasí

Zpráva byla vytvořena před 36 minutami, v 10:20 UTC
vítr z různých směrů 1 kt
Teplota 3°C
Vlhkost vzduchu 70%
Tlak 1016 hPa
Viditelnost 10 km a více
Oblačno až skoro zataženo ve výšce 2100 ft

METAR: LTAC 101020Z VRB01KT 9999 BKN021 03/M02 Q1016 NOSIG RMK RWY21L VRB02KT RWY03L 27003KT 200V310 RWY21R 33001KT

Čas: 13:56 (10:56 UTC)

Předpověď počasí

Zpráva byla vytvořena před 2 hodinami a 1 minutami, v 08:55 UTC
Předpověď platná od 10 v 08 UTC do 11 v 06 UTC
vítr z různých směrů 2 kt
Viditelnost 10 km a více
Oblačno až skoro zataženo ve výšce 1700 ft
Změna
od 10 v 11 UTC do 10 v 13 UTC
Polojasno ve výšce 3500 ft
Změna
od 10 v 21 UTC do 10 v 24 UTC
Oblačno až skoro zataženo ve výšce 1700 ft

TAF: LTAC 100855Z 1008/1106 VRB02KT 9999 BKN017 BECMG 1011/1013 SCT035 BECMG 1021/1024 BKN017

Stav a předpovědi počasí z více než 4 000 letišť (zprávy METAR a TAF).

Červené a žluté tečky na mapě představují dostupné meteorologické stanice.

Když kurzor umístíte na tečku, zobrazí se název stanice.

Pak kliknutím zobrazíte stav a předpověď počasí.

Chcete-li změnit mapu, kliknutím na zelené tlačítko se znaménkem +mapu přiblížíte, kliknutím na zelené tlačítko se znaménkem – mapu oddálíte a kliknutím na zelené šipky přejdete na sousední mapy.


METAR-TAF: